Time;durP1;ratioP1;P1;durP2;ratioP2;P2;SDS_P1;SDS_P2;PMS_P1;PMS_P2;Temp;Humidity;BMP_temperature;BMP_pressure;BME280_temperature;BME280_humidity;BME280_pressure;Samples;Min_cycle;Max_cycle;Signal;HPM_P1;HPM_P2
2021/03/29 00:01:55;;;;;;;;;;;17.60;59.70;;;;;;5027736;28;19913;-74
2021/03/29 00:04:21;;;;;;;;;;;17.60;59.70;;;;;;5032929;28;20019;-75
2021/03/29 00:06:47;;;;;;;;;;;17.60;59.70;;;;;;5042875;28;20326;-75
2021/03/29 00:09:13;;;;;;;;;;;17.60;59.70;;;;;;5051966;28;19913;-75
2021/03/29 00:11:39;;;;;;;;;;;17.60;59.70;;;;;;5033679;28;20294;-75
2021/03/29 00:14:05;;;;;;;;;;;17.70;59.70;;;;;;5032738;28;20381;-75
2021/03/29 00:16:32;;;;;;;;;;;17.60;59.70;;;;;;5047630;28;19916;-76
2021/03/29 00:18:57;;;;;;;;;;;17.60;59.80;;;;;;5046218;28;19913;-75
2021/03/29 00:21:23;;;;;;;;;;;17.70;59.70;;;;;;5024365;28;19935;-76
2021/03/29 00:23:49;;;;;;;;;;;17.60;59.70;;;;;;5029523;28;20007;-75
2021/03/29 00:26:14;;;;;;;;;;;17.70;59.80;;;;;;5048893;28;20437;-75
2021/03/29 00:28:40;;;;;;;;;;;17.60;59.80;;;;;;5038249;28;19936;-75
2021/03/29 00:31:08;;;;;;;;;;;17.60;59.80;;;;;;5026068;28;20018;-75
2021/03/29 00:33:34;;;;;;;;;;;17.60;59.80;;;;;;5033918;28;19962;-75
2021/03/29 00:36:00;;;;;;;;;;;17.60;59.80;;;;;;5063640;28;19948;-75
2021/03/29 00:38:26;;;;;;;;;;;17.60;59.80;;;;;;5056882;28;19963;-75
2021/03/29 00:40:53;;;;;;;;;;;17.60;59.80;;;;;;5031057;28;19940;-75
2021/03/29 00:43:24;;;;;;;;;;;17.60;59.80;;;;;;5044784;28;19913;-75
2021/03/29 00:45:51;;;;;;;;;;;17.60;59.80;;;;;;5050892;28;19920;-75
2021/03/29 00:48:19;;;;;;;;;;;17.60;59.80;;;;;;5045625;28;19916;-75
2021/03/29 00:50:45;;;;;;;;;;;17.60;59.80;;;;;;5044607;28;19917;-75
2021/03/29 00:53:11;;;;;;;;;;;17.60;59.80;;;;;;5044570;28;19928;-75
2021/03/29 00:55:38;;;;;;;;;;;17.60;59.80;;;;;;5037454;28;19917;-75
2021/03/29 00:58:04;;;;;;;;;;;17.60;59.80;;;;;;5033016;28;20023;-75
2021/03/29 01:00:29;;;;;;;;;;;17.60;59.80;;;;;;5025917;28;20422;-74
2021/03/29 01:02:55;;;;;;;;;;;17.60;59.80;;;;;;5048561;28;19913;-75
2021/03/29 01:05:21;;;;;;;;;;;17.60;59.80;;;;;;5040441;28;19958;-75
2021/03/29 01:07:48;;;;;;;;;;;17.60;59.80;;;;;;5051588;28;19913;-77
2021/03/29 01:10:14;;;;;;;;;;;17.60;59.80;;;;;;5044018;28;19920;-75
2021/03/29 01:12:44;;;;;;;;;;;17.60;59.80;;;;;;5028888;28;20282;-76
2021/03/29 01:15:12;;;;;;;;;;;17.60;59.80;;;;;;5033172;28;19960;-74
2021/03/29 01:17:39;;;;;;;;;;;17.60;59.80;;;;;;5033591;28;19913;-75
2021/03/29 01:20:04;;;;;;;;;;;17.60;59.80;;;;;;5043566;28;19913;-75
2021/03/29 01:22:31;;;;;;;;;;;17.60;59.80;;;;;;5044799;28;19921;-74
2021/03/29 01:25:06;;;;;;;;;;;17.50;59.90;;;;;;5022463;28;19913;-74
2021/03/29 01:27:38;;;;;;;;;;;17.50;59.90;;;;;;5042195;28;20002;-75
2021/03/29 01:30:07;;;;;;;;;;;17.50;59.90;;;;;;5049637;28;20344;-76
2021/03/29 01:32:33;;;;;;;;;;;17.60;59.90;;;;;;5065590;28;19917;-73
2021/03/29 01:34:59;;;;;;;;;;;17.50;59.90;;;;;;5061338;28;19917;-73
2021/03/29 01:37:26;;;;;;;;;;;17.60;59.90;;;;;;5029600;28;19913;-73
2021/03/29 01:39:51;;;;;;;;;;;17.50;59.90;;;;;;5034334;28;19921;-73
2021/03/29 01:42:17;;;;;;;;;;;17.50;59.90;;;;;;5054868;28;19921;-75
2021/03/29 01:44:43;;;;;;;;;;;17.50;59.90;;;;;;5050682;28;19963;-74
2021/03/29 01:47:09;;;;;;;;;;;17.50;59.90;;;;;;5039382;28;19917;-73
2021/03/29 01:49:36;;;;;;;;;;;17.50;59.90;;;;;;5049661;28;19919;-73
2021/03/29 01:52:02;;;;;;;;;;;17.50;59.90;;;;;;5056373;28;20400;-74
2021/03/29 01:54:29;;;;;;;;;;;17.50;59.90;;;;;;5034399;28;20355;-73
2021/03/29 01:56:57;;;;;;;;;;;17.60;59.90;;;;;;5046480;28;19999;-73
2021/03/29 01:59:22;;;;;;;;;;;17.50;59.90;;;;;;5044081;28;19952;-73
2021/03/29 02:01:48;;;;;;;;;;;17.50;59.90;;;;;;5051409;28;20361;-72
2021/03/29 02:04:14;;;;;;;;;;;17.50;59.90;;;;;;5036663;28;20394;-73
2021/03/29 02:06:40;;;;;;;;;;;17.50;60.00;;;;;;5037672;28;20409;-73
2021/03/29 02:09:06;;;;;;;;;;;17.50;60.00;;;;;;5049475;28;20366;-72
2021/03/29 02:11:32;;;;;;;;;;;17.60;60.00;;;;;;5042072;28;19921;-73
2021/03/29 02:13:59;;;;;;;;;;;17.60;60.00;;;;;;5051550;28;20270;-72
2021/03/29 02:16:27;;;;;;;;;;;17.50;60.00;;;;;;5030941;28;19913;-73
2021/03/29 02:18:55;;;;;;;;;;;17.50;60.00;;;;;;5029502;28;19913;-73
2021/03/29 02:21:22;;;;;;;;;;;17.50;60.00;;;;;;5033288;28;20403;-72
2021/03/29 02:23:49;;;;;;;;;;;17.50;60.00;;;;;;5038629;28;19960;-73
2021/03/29 02:26:17;;;;;;;;;;;17.50;60.00;;;;;;5028603;28;19913;-72
2021/03/29 02:28:43;;;;;;;;;;;17.50;60.00;;;;;;5046554;28;19948;-72
2021/03/29 02:31:08;;;;;;;;;;;17.50;60.00;;;;;;5046264;28;19959;-72
2021/03/29 02:33:34;;;;;;;;;;;17.50;60.00;;;;;;5052973;28;20334;-73
2021/03/29 02:36:00;;;;;;;;;;;17.50;60.00;;;;;;5036770;28;20000;-72
2021/03/29 02:38:26;;;;;;;;;;;17.50;60.00;;;;;;5035999;28;20361;-72
2021/03/29 02:40:52;;;;;;;;;;;17.50;60.00;;;;;;5025621;28;19924;-73
2021/03/29 02:43:19;;;;;;;;;;;17.50;60.00;;;;;;5036566;28;20386;-75
2021/03/29 02:46:02;;;;;;;;;;;17.50;60.00;;;;;;5044740;28;19938;-73
2021/03/29 02:48:30;;;;;;;;;;;17.50;60.00;;;;;;5068283;28;19961;-73
2021/03/29 02:50:56;;;;;;;;;;;17.50;60.00;;;;;;5035436;28;20031;-73
2021/03/29 02:53:23;;;;;;;;;;;17.50;60.10;;;;;;5030217;28;19921;-73
2021/03/29 02:55:49;;;;;;;;;;;17.50;60.10;;;;;;5045645;28;19923;-73
2021/03/29 02:58:20;;;;;;;;;;;17.50;60.10;;;;;;5036115;28;20391;-72
2021/03/29 03:00:46;;;;;;;;;;;17.50;60.10;;;;;;5036644;28;19913;-73
2021/03/29 03:03:11;;;;;;;;;;;17.50;60.10;;;;;;5044417;28;20345;-74
2021/03/29 03:05:37;;;;;;;;;;;17.50;60.10;;;;;;5045057;28;19913;-73
2021/03/29 03:08:04;;;;;;;;;;;17.50;60.00;;;;;;5043884;28;19920;-74
2021/03/29 03:10:30;;;;;;;;;;;17.50;60.10;;;;;;5033245;28;19913;-74
2021/03/29 03:12:56;;;;;;;;;;;17.50;60.10;;;;;;5052505;28;19963;-74
2021/03/29 03:15:23;;;;;;;;;;;17.50;60.10;;;;;;5033780;28;20074;-74
2021/03/29 03:17:50;;;;;;;;;;;17.50;60.10;;;;;;5046296;28;19958;-74
2021/03/29 03:20:16;;;;;;;;;;;17.50;60.10;;;;;;5053249;28;19913;-74
2021/03/29 03:22:58;;;;;;;;;;;17.40;60.10;;;;;;5034525;28;19924;-75
2021/03/29 03:25:36;;;;;;;;;;;17.50;60.10;;;;;;5050364;28;19981;-74
2021/03/29 03:28:03;;;;;;;;;;;17.50;60.10;;;;;;5043159;28;19978;-76
2021/03/29 03:30:30;;;;;;;;;;;17.50;60.10;;;;;;5048006;28;20342;-74
2021/03/29 03:32:56;;;;;;;;;;;17.40;60.10;;;;;;5036819;28;19963;-74
2021/03/29 03:35:23;;;;;;;;;;;17.50;60.10;;;;;;5046641;28;19995;-74
2021/03/29 03:37:57;;;;;;;;;;;17.50;60.10;;;;;;5045176;28;19922;-75
2021/03/29 03:40:23;;;;;;;;;;;17.50;60.10;;;;;;5049335;28;19913;-74
2021/03/29 03:42:49;;;;;;;;;;;17.50;60.20;;;;;;5034399;28;19920;-74
2021/03/29 03:45:16;;;;;;;;;;;17.50;60.10;;;;;;5031672;28;19913;-74
2021/03/29 03:47:42;;;;;;;;;;;17.40;60.20;;;;;;5034574;28;20321;-75
2021/03/29 03:50:09;;;;;;;;;;;17.50;60.20;;;;;;5032636;28;20371;-74
2021/03/29 03:52:35;;;;;;;;;;;17.50;60.20;;;;;;5049171;28;19923;-74
2021/03/29 03:55:00;;;;;;;;;;;17.40;60.20;;;;;;5041638;28;19921;-74
2021/03/29 03:57:26;;;;;;;;;;;17.40;60.20;;;;;;5052543;28;20366;-74
2021/03/29 03:59:53;;;;;;;;;;;17.40;60.20;;;;;;5029077;28;19909;-74
2021/03/29 04:02:18;;;;;;;;;;;17.40;60.20;;;;;;5030413;28;19987;-74
2021/03/29 04:04:44;;;;;;;;;;;17.40;60.20;;;;;;5032710;28;20003;-74
2021/03/29 04:07:09;;;;;;;;;;;17.40;60.20;;;;;;5033449;28;20317;-74
2021/03/29 04:09:42;;;;;;;;;;;17.50;60.20;;;;;;5045460;28;19909;-73
2021/03/29 04:12:10;;;;;;;;;;;17.40;60.20;;;;;;5027370;28;19952;-74
2021/03/29 04:14:36;;;;;;;;;;;17.40;60.20;;;;;;5040665;28;19959;-74
2021/03/29 04:17:02;;;;;;;;;;;17.40;60.20;;;;;;5046771;28;19919;-74
2021/03/29 04:19:27;;;;;;;;;;;17.40;60.20;;;;;;5047188;28;19913;-73
2021/03/29 04:21:53;;;;;;;;;;;17.40;60.20;;;;;;5064453;28;19909;-73
2021/03/29 04:24:18;;;;;;;;;;;17.40;60.20;;;;;;5023685;28;19920;-74
2021/03/29 04:26:44;;;;;;;;;;;17.40;60.20;;;;;;5030238;28;19913;-73
2021/03/29 04:29:10;;;;;;;;;;;17.40;60.20;;;;;;5054999;28;19996;-73
2021/03/29 04:31:35;;;;;;;;;;;17.40;60.20;;;;;;5052501;28;19923;-73
2021/03/29 04:34:01;;;;;;;;;;;17.40;60.20;;;;;;5044740;28;19921;-73
2021/03/29 04:36:26;;;;;;;;;;;17.40;60.20;;;;;;5048790;28;19909;-74
2021/03/29 04:38:52;;;;;;;;;;;17.40;60.20;;;;;;5029079;28;20137;-74
2021/03/29 04:41:17;;;;;;;;;;;17.40;60.30;;;;;;5024371;28;19921;-75
2021/03/29 04:43:43;;;;;;;;;;;17.40;60.20;;;;;;5029628;28;19993;-74
2021/03/29 04:46:08;;;;;;;;;;;17.40;60.20;;;;;;5021804;28;19959;-74
2021/03/29 04:48:34;;;;;;;;;;;17.40;60.20;;;;;;5028040;28;19913;-75
2021/03/29 04:50:59;;;;;;;;;;;17.40;60.30;;;;;;5023788;28;19933;-74
2021/03/29 04:53:30;;;;;;;;;;;17.40;60.30;;;;;;5028897;28;20359;-75
2021/03/29 04:55:56;;;;;;;;;;;17.40;60.20;;;;;;5027657;28;20012;-74
2021/03/29 04:58:21;;;;;;;;;;;17.40;60.20;;;;;;5027397;28;20379;-75
2021/03/29 05:00:47;;;;;;;;;;;17.40;60.30;;;;;;5031019;28;19924;-77
2021/03/29 05:03:12;;;;;;;;;;;17.40;60.30;;;;;;5022063;28;20382;-75
2021/03/29 05:05:38;;;;;;;;;;;17.40;60.30;;;;;;5023370;28;19975;-74
2021/03/29 05:08:03;;;;;;;;;;;17.40;60.20;;;;;;5027313;28;19913;-76
2021/03/29 05:10:29;;;;;;;;;;;17.40;60.20;;;;;;5030717;28;20011;-74
2021/03/29 05:12:54;;;;;;;;;;;17.40;60.30;;;;;;5025194;28;20325;-74
2021/03/29 05:15:21;;;;;;;;;;;17.40;60.20;;;;;;5023074;28;20388;-75
2021/03/29 05:17:46;;;;;;;;;;;17.40;60.20;;;;;;5055415;28;19920;-75
2021/03/29 05:20:12;;;;;;;;;;;17.40;60.20;;;;;;5029952;28;19921;-75
2021/03/29 05:22:38;;;;;;;;;;;17.40;60.20;;;;;;5063494;28;19913;-75
2021/03/29 05:25:04;;;;;;;;;;;17.40;60.20;;;;;;5029094;28;19920;-75
2021/03/29 05:27:29;;;;;;;;;;;17.40;60.20;;;;;;5026755;28;20359;-74
2021/03/29 05:29:55;;;;;;;;;;;17.40;60.20;;;;;;5029154;28;19920;-75
2021/03/29 05:32:25;;;;;;;;;;;17.40;60.20;;;;;;5026672;28;20313;-75
2021/03/29 05:34:51;;;;;;;;;;;17.40;60.20;;;;;;5030156;28;19924;-75
2021/03/29 05:37:18;;;;;;;;;;;17.40;60.20;;;;;;5026885;28;19917;-76
2021/03/29 05:39:47;;;;;;;;;;;17.40;60.20;;;;;;5028027;28;20323;-76
2021/03/29 05:42:13;;;;;;;;;;;17.40;60.20;;;;;;5045651;28;20006;-76
2021/03/29 05:44:38;;;;;;;;;;;17.40;60.10;;;;;;5036257;28;20346;-77
2021/03/29 05:47:04;;;;;;;;;;;17.40;60.20;;;;;;5058132;28;19920;-75
2021/03/29 05:49:30;;;;;;;;;;;17.40;60.10;;;;;;5049857;28;19912;-75
2021/03/29 05:51:56;;;;;;;;;;;17.50;60.10;;;;;;5032105;28;19928;-76
2021/03/29 05:54:25;;;;;;;;;;;17.50;60.10;;;;;;5064714;28;19921;-74
2021/03/29 05:56:50;;;;;;;;;;;17.50;60.10;;;;;;5025723;28;20020;-73
2021/03/29 05:59:33;;;;;;;;;;;17.50;60.10;;;;;;5029066;28;19936;-73
2021/03/29 06:01:59;;;;;;;;;;;17.50;60.10;;;;;;5020460;28;19913;-74
2021/03/29 06:04:39;;;;;;;;;;;17.50;60.00;;;;;;5028155;28;19967;-74
2021/03/29 06:07:19;;;;;;;;;;;17.50;60.00;;;;;;5041691;28;20275;-74
2021/03/29 06:09:46;;;;;;;;;;;17.40;60.00;;;;;;5029076;28;19917;-74
2021/03/29 06:12:13;;;;;;;;;;;17.50;60.00;;;;;;5031509;28;20019;-74
2021/03/29 06:14:39;;;;;;;;;;;17.50;60.00;;;;;;5033422;28;19925;-74
2021/03/29 06:17:06;;;;;;;;;;;17.50;60.00;;;;;;5044291;28;19917;-74
2021/03/29 06:19:32;;;;;;;;;;;17.50;60.00;;;;;;5028392;28;19917;-75
2021/03/29 06:22:05;;;;;;;;;;;17.50;60.00;;;;;;5031452;28;19916;-74
2021/03/29 06:24:49;;;;;;;;;;;17.40;60.00;;;;;;5050817;28;20390;-74
2021/03/29 06:27:15;;;;;;;;;;;17.50;60.00;;;;;;5041727;28;19920;-75
2021/03/29 06:29:40;;;;;;;;;;;17.50;60.00;;;;;;5042580;28;19917;-74
2021/03/29 06:32:06;;;;;;;;;;;17.50;59.90;;;;;;5030900;28;19928;-74
2021/03/29 06:34:32;;;;;;;;;;;17.50;59.90;;;;;;5056805;28;19967;-74
2021/03/29 06:37:05;;;;;;;;;;;17.50;59.90;;;;;;5050223;28;19912;-74
2021/03/29 06:39:34;;;;;;;;;;;17.50;59.90;;;;;;5050513;28;19920;-75
2021/03/29 06:41:59;;;;;;;;;;;17.50;59.90;;;;;;5051545;28;19968;-75
2021/03/29 06:44:36;;;;;;;;;;;17.50;59.90;;;;;;5035686;28;19967;-76
2021/03/29 06:47:05;;;;;;;;;;;17.50;59.80;;;;;;5032326;28;19913;-75
2021/03/29 06:49:37;;;;;;;;;;;17.50;59.80;;;;;;5035831;28;19944;-75
2021/03/29 06:52:18;;;;;;;;;;;17.50;59.80;;;;;;5027054;28;19964;-76
2021/03/29 06:54:44;;;;;;;;;;;17.50;59.80;;;;;;5032780;28;20267;-76
2021/03/29 06:57:10;;;;;;;;;;;17.50;59.80;;;;;;5054313;28;19935;-75
2021/03/29 06:59:36;;;;;;;;;;;17.50;59.80;;;;;;5052688;28;19912;-76
2021/03/29 07:02:06;;;;;;;;;;;17.50;59.80;;;;;;5034448;28;19917;-76
2021/03/29 07:04:33;;;;;;;;;;;17.50;59.80;;;;;;5025362;28;19921;-75
2021/03/29 07:06:59;;;;;;;;;;;17.50;59.70;;;;;;5050327;28;20266;-76
2021/03/29 07:09:25;;;;;;;;;;;17.50;59.70;;;;;;5044339;28;19920;-75
2021/03/29 07:11:50;;;;;;;;;;;17.50;59.70;;;;;;5047704;28;19999;-75
2021/03/29 07:14:19;;;;;;;;;;;17.60;59.70;;;;;;5051939;28;20275;-75
2021/03/29 07:16:45;;;;;;;;;;;17.60;59.70;;;;;;5050496;28;20008;-75
2021/03/29 07:19:11;;;;;;;;;;;17.60;59.70;;;;;;5042096;28;20326;-75
2021/03/29 07:21:37;;;;;;;;;;;17.60;59.60;;;;;;5031910;28;20436;-75
2021/03/29 07:24:03;;;;;;;;;;;17.60;59.60;;;;;;5030950;28;19939;-76
2021/03/29 07:26:43;;;;;;;;;;;17.60;59.60;;;;;;5026582;28;20003;-75
2021/03/29 07:29:18;;;;;;;;;;;17.60;59.60;;;;;;5029718;28;19913;-75
2021/03/29 07:31:43;;;;;;;;;;;17.60;59.60;;;;;;5055542;28;19917;-75
2021/03/29 07:34:10;;;;;;;;;;;17.60;59.50;;;;;;5052845;28;19970;-75
2021/03/29 07:36:45;;;;;;;;;;;17.60;59.50;;;;;;5040168;28;20298;-75
2021/03/29 07:39:11;;;;;;;;;;;17.60;59.50;;;;;;5063752;28;20374;-76
2021/03/29 07:41:37;;;;;;;;;;;17.60;59.50;;;;;;5048014;28;19924;-76
2021/03/29 07:44:10;;;;;;;;;;;17.60;59.50;;;;;;5047464;28;19924;-76
2021/03/29 07:46:39;;;;;;;;;;;17.60;59.50;;;;;;5046064;28;19920;-75
2021/03/29 07:49:25;;;;;;;;;;;17.60;59.50;;;;;;5050447;28;20004;-75
2021/03/29 07:52:09;;;;;;;;;;;17.70;59.50;;;;;;5043232;28;20070;-76
2021/03/29 07:54:50;;;;;;;;;;;17.70;59.40;;;;;;5045077;28;19921;-76
2021/03/29 07:57:36;;;;;;;;;;;17.60;59.40;;;;;;5054454;28;20327;-76
2021/03/29 08:00:02;;;;;;;;;;;17.70;59.30;;;;;;5039943;28;19975;-76
2021/03/29 08:02:32;;;;;;;;;;;17.70;59.30;;;;;;5033557;28;19967;-75
2021/03/29 08:05:08;;;;;;;;;;;17.70;59.30;;;;;;5058302;28;20020;-76
2021/03/29 08:07:41;;;;;;;;;;;17.70;59.30;;;;;;5045046;28;19996;-76
2021/03/29 08:10:11;;;;;;;;;;;17.70;59.30;;;;;;5029350;28;19939;-75
2021/03/29 08:12:55;;;;;;;;;;;17.70;59.20;;;;;;5047968;28;19917;-75
2021/03/29 08:15:21;;;;;;;;;;;17.70;59.20;;;;;;5060525;28;19924;-77
2021/03/29 08:17:51;;;;;;;;;;;17.70;59.20;;;;;;5041505;28;19917;-77
2021/03/29 08:20:19;;;;;;;;;;;17.80;59.20;;;;;;5050636;28;20007;-77
2021/03/29 08:22:45;;;;;;;;;;;17.70;59.10;;;;;;5024556;28;19968;-76
2021/03/29 08:25:27;;;;;;;;;;;17.70;59.10;;;;;;5029724;28;20336;-76
2021/03/29 08:27:56;;;;;;;;;;;17.70;59.10;;;;;;5037419;28;19928;-76
2021/03/29 08:30:22;;;;;;;;;;;17.70;59.10;;;;;;5031967;28;19917;-75
2021/03/29 08:32:48;;;;;;;;;;;17.70;59.10;;;;;;5040329;28;19921;-76
2021/03/29 08:35:14;;;;;;;;;;;17.80;59.10;;;;;;5035235;28;19947;-75
2021/03/29 08:37:40;;;;;;;;;;;17.70;59.10;;;;;;5026262;28;19928;-76
2021/03/29 08:40:09;;;;;;;;;;;17.70;59.10;;;;;;5062926;28;19913;-76
2021/03/29 08:42:35;;;;;;;;;;;17.80;59.00;;;;;;5059248;28;19920;-77
2021/03/29 08:45:04;;;;;;;;;;;17.70;59.00;;;;;;5045948;28;19917;-76
2021/03/29 08:47:29;;;;;;;;;;;17.80;59.00;;;;;;5045431;28;19966;-76
2021/03/29 08:49:57;;;;;;;;;;;17.80;59.00;;;;;;5031304;28;19913;-77
2021/03/29 08:52:23;;;;;;;;;;;17.80;58.90;;;;;;5047464;28;20408;-78
2021/03/29 08:54:58;;;;;;;;;;;17.80;58.90;;;;;;5032206;28;19940;-76
2021/03/29 08:57:26;;;;;;;;;;;17.80;58.90;;;;;;5043787;28;20428;-76
2021/03/29 08:59:56;;;;;;;;;;;17.80;58.90;;;;;;5034959;28;20334;-77
2021/03/29 09:02:22;;;;;;;;;;;17.80;58.90;;;;;;5031357;28;19912;-76
2021/03/29 09:04:49;;;;;;;;;;;17.80;58.90;;;;;;5027039;28;19919;-77
2021/03/29 09:07:14;;;;;;;;;;;17.80;58.90;;;;;;5030955;28;19917;-76
2021/03/29 09:09:40;;;;;;;;;;;17.80;58.80;;;;;;5031378;28;19920;-76
2021/03/29 09:12:06;;;;;;;;;;;17.80;58.80;;;;;;5030052;28;19924;-76
2021/03/29 09:14:34;;;;;;;;;;;17.80;58.80;;;;;;5026394;28;20015;-77
2021/03/29 09:17:01;;;;;;;;;;;17.80;58.80;;;;;;5053502;28;19918;-76
2021/03/29 09:19:27;;;;;;;;;;;17.80;58.70;;;;;;5064137;28;19924;-77
2021/03/29 09:21:57;;;;;;;;;;;17.80;58.70;;;;;;5046385;28;19913;-78
2021/03/29 09:24:24;;;;;;;;;;;17.90;58.70;;;;;;5064425;28;19912;-77
2021/03/29 09:27:07;;;;;;;;;;;17.80;58.60;;;;;;5025476;28;20274;-76
2021/03/29 09:29:37;;;;;;;;;;;17.80;58.70;;;;;;5041238;28;19917;-77
2021/03/29 09:32:07;;;;;;;;;;;17.90;58.60;;;;;;5045162;28;19932;-77
2021/03/29 09:34:35;;;;;;;;;;;17.90;58.60;;;;;;5052474;28;19967;-77
2021/03/29 09:37:01;;;;;;;;;;;17.90;58.60;;;;;;5050269;28;19912;-77
2021/03/29 09:39:28;;;;;;;;;;;17.90;58.60;;;;;;5030665;28;20306;-76
2021/03/29 09:41:54;;;;;;;;;;;17.90;58.60;;;;;;5048280;28;19921;-76
2021/03/29 09:44:29;;;;;;;;;;;17.90;58.60;;;;;;5065885;28;19920;-76
2021/03/29 09:46:58;;;;;;;;;;;17.90;58.50;;;;;;5032560;28;19920;-76
2021/03/29 09:49:24;;;;;;;;;;;18.00;58.50;;;;;;5051568;28;19919;-76
2021/03/29 09:52:00;;;;;;;;;;;18.00;58.40;;;;;;5048571;28;20047;-77
2021/03/29 09:54:27;;;;;;;;;;;17.90;58.40;;;;;;5032183;28;19932;-76
2021/03/29 09:56:53;;;;;;;;;;;18.00;58.40;;;;;;5045793;28;19917;-77
2021/03/29 09:59:25;;;;;;;;;;;18.00;58.40;;;;;;5037316;28;19917;-75
2021/03/29 10:01:50;;;;;;;;;;;18.00;58.30;;;;;;5050926;28;19917;-76
2021/03/29 10:04:16;;;;;;;;;;;18.00;58.30;;;;;;5046393;28;20297;-76
2021/03/29 10:06:55;;;;;;;;;;;18.00;58.10;;;;;;5051912;28;20374;-76
2021/03/29 10:09:31;;;;;;;;;;;18.10;58.00;;;;;;5031490;28;19984;-76
2021/03/29 10:11:56;;;;;;;;;;;18.10;57.90;;;;;;5022925;28;19931;-76
2021/03/29 10:14:30;;;;;;;;;;;18.10;57.90;;;;;;5054489;28;19921;-76
2021/03/29 10:16:55;;;;;;;;;;;18.10;58.00;;;;;;5036312;28;20392;-76
2021/03/29 10:19:21;;;;;;;;;;;18.10;58.00;;;;;;5052095;28;19924;-76
2021/03/29 10:21:59;;;;;;;;;;;18.10;58.00;;;;;;5019558;28;19959;-78
2021/03/29 10:24:24;;;;;;;;;;;18.10;58.00;;;;;;5044933;28;19923;-76
2021/03/29 10:26:57;;;;;;;;;;;18.10;58.00;;;;;;5064551;28;20269;-76
2021/03/29 10:29:43;;;;;;;;;;;18.10;58.00;;;;;;5032921;28;20007;-76
2021/03/29 10:32:11;;;;;;;;;;;18.00;58.10;;;;;;5021630;28;19917;-76
2021/03/29 10:34:38;;;;;;;;;;;18.10;58.10;;;;;;5045962;28;20310;-76
2021/03/29 10:37:05;;;;;;;;;;;18.10;58.10;;;;;;5021902;28;19912;-75
2021/03/29 10:39:37;;;;;;;;;;;18.00;58.10;;;;;;5035781;28;19920;-76
2021/03/29 10:42:02;;;;;;;;;;;18.00;58.10;;;;;;5052872;28;20019;-76
2021/03/29 10:44:28;;;;;;;;;;;18.10;58.10;;;;;;5047376;28;20438;-76
2021/03/29 10:46:53;;;;;;;;;;;18.10;58.10;;;;;;5054583;28;19913;-77
2021/03/29 10:49:24;;;;;;;;;;;18.10;58.00;;;;;;5032560;28;19913;-76
2021/03/29 10:51:49;;;;;;;;;;;18.10;58.10;;;;;;5030151;28;19927;-76
2021/03/29 10:54:15;;;;;;;;;;;18.10;58.00;;;;;;5052813;28;19916;-76
2021/03/29 10:56:41;;;;;;;;;;;18.10;58.00;;;;;;5029550;28;19971;-76
2021/03/29 10:59:06;;;;;;;;;;;18.10;58.00;;;;;;5042928;28;19959;-76
2021/03/29 11:01:32;;;;;;;;;;;18.10;57.90;;;;;;5065987;28;20011;-76
2021/03/29 11:03:57;;;;;;;;;;;18.10;57.90;;;;;;5052385;28;19917;-76
2021/03/29 11:06:23;;;;;;;;;;;18.10;57.90;;;;;;5053663;28;19917;-76
2021/03/29 11:08:48;;;;;;;;;;;18.10;57.90;;;;;;5073890;28;20365;-76
2021/03/29 11:11:14;;;;;;;;;;;18.10;57.90;;;;;;5034944;28;19917;-76
2021/03/29 11:13:39;;;;;;;;;;;18.20;57.90;;;;;;5049485;28;19939;-76
2021/03/29 11:16:08;;;;;;;;;;;18.10;57.80;;;;;;5064551;28;19924;-75
2021/03/29 11:18:33;;;;;;;;;;;18.10;57.80;;;;;;5031061;28;19912;-76
2021/03/29 11:20:59;;;;;;;;;;;18.20;57.80;;;;;;5042447;28;19936;-76
2021/03/29 11:23:25;;;;;;;;;;;18.10;57.80;;;;;;5034988;28;19920;-76
2021/03/29 11:25:53;;;;;;;;;;;18.10;57.80;;;;;;5032926;28;19975;-76
2021/03/29 11:28:18;;;;;;;;;;;18.10;57.80;;;;;;5041145;28;19921;-77
2021/03/29 11:30:44;;;;;;;;;;;18.10;57.80;;;;;;5022344;28;19917;-76
2021/03/29 11:33:09;;;;;;;;;;;18.20;57.80;;;;;;5055422;28;19917;-76
2021/03/29 11:35:35;;;;;;;;;;;18.20;57.70;;;;;;5051031;28;20015;-76
2021/03/29 11:38:00;;;;;;;;;;;18.20;57.70;;;;;;5035936;28;19919;-76
2021/03/29 11:40:26;;;;;;;;;;;18.20;57.70;;;;;;5053411;28;19920;-76
2021/03/29 11:42:51;;;;;;;;;;;18.20;57.70;;;;;;5031815;28;19921;-76
2021/03/29 11:45:17;;;;;;;;;;;18.20;57.70;;;;;;5040969;28;19921;-77
2021/03/29 11:47:42;;;;;;;;;;;18.20;57.70;;;;;;5029332;28;19913;-75
2021/03/29 11:50:10;;;;;;;;;;;18.20;57.70;;;;;;5051218;28;20281;-72
2021/03/29 11:52:36;;;;;;;;;;;18.20;57.70;;;;;;5033213;28;19912;-75
2021/03/29 11:55:02;;;;;;;;;;;18.20;57.60;;;;;;5048557;28;19989;-78
2021/03/29 11:57:28;;;;;;;;;;;18.20;57.70;;;;;;5051732;28;19912;-74
2021/03/29 11:59:54;;;;;;;;;;;18.20;57.70;;;;;;5052418;28;19916;-74
2021/03/29 12:02:34;;;;;;;;;;;18.20;57.60;;;;;;5051190;28;19912;-78
2021/03/29 12:07:54;;;;;;;;;;;18.20;57.60;;;;;;5048512;28;19913;-73
2021/03/29 12:13:05;;;;;;;;;;;18.20;57.60;;;;;;5050916;28;19920;-74
2021/03/29 12:15:31;;;;;;;;;;;18.20;57.60;;;;;;5034436;28;20377;-73
2021/03/29 12:17:57;;;;;;;;;;;18.20;57.60;;;;;;5023693;28;19908;-73
2021/03/29 12:20:23;;;;;;;;;;;18.20;57.50;;;;;;5049667;28;19947;-74
2021/03/29 12:22:48;;;;;;;;;;;18.20;57.60;;;;;;5047269;28;19913;-74
2021/03/29 12:25:16;;;;;;;;;;;18.30;57.50;;;;;;5028804;28;20252;-74
2021/03/29 12:27:42;;;;;;;;;;;18.20;57.50;;;;;;5016010;28;19909;-74
2021/03/29 12:30:13;;;;;;;;;;;18.20;57.50;;;;;;5042942;28;19919;-75
2021/03/29 12:32:39;;;;;;;;;;;18.30;57.50;;;;;;5042899;28;20372;-76
2021/03/29 12:35:05;;;;;;;;;;;18.30;57.50;;;;;;5032104;28;20011;-76
2021/03/29 12:37:33;;;;;;;;;;;18.30;57.40;;;;;;5049040;28;19925;-76
2021/03/29 12:40:04;;;;;;;;;;;18.30;57.50;;;;;;5034269;28;19913;-75
2021/03/29 12:42:33;;;;;;;;;;;18.30;57.50;;;;;;5027113;28;19928;-76
2021/03/29 12:44:58;;;;;;;;;;;18.30;57.40;;;;;;5030130;28;19917;-75
2021/03/29 12:47:30;;;;;;;;;;;18.30;57.40;;;;;;5029426;28;19914;-76
2021/03/29 12:50:06;;;;;;;;;;;18.30;57.40;;;;;;5026624;28;19953;-76
2021/03/29 12:52:32;;;;;;;;;;;18.30;57.40;;;;;;5015490;28;19961;-80
2021/03/29 12:54:57;;;;;;;;;;;18.30;57.40;;;;;;5029723;28;20370;-74
2021/03/29 12:57:23;;;;;;;;;;;18.30;57.40;;;;;;5022757;28;19913;-73
2021/03/29 12:59:49;;;;;;;;;;;18.30;57.40;;;;;;5027115;28;19959;-74
2021/03/29 13:02:15;;;;;;;;;;;18.30;57.30;;;;;;5029443;28;19913;-73
2021/03/29 13:04:42;;;;;;;;;;;18.30;57.30;;;;;;5027891;28;19924;-74
2021/03/29 13:10:04;;;;;;;;;;;18.30;57.30;;;;;;5026398;28;20246;-74
2021/03/29 13:12:30;;;;;;;;;;;18.30;57.30;;;;;;5021263;28;20363;-73
2021/03/29 13:15:09;;;;;;;;;;;18.30;57.30;;;;;;5031154;28;19924;-75
2021/03/29 13:17:39;;;;;;;;;;;18.30;57.30;;;;;;5032723;28;19975;-74
2021/03/29 13:20:06;;;;;;;;;;;18.30;57.30;;;;;;5017890;28;20004;-74
2021/03/29 13:22:31;;;;;;;;;;;18.30;57.30;;;;;;5028849;28;19944;-74
2021/03/29 13:24:57;;;;;;;;;;;18.30;57.30;;;;;;5015992;28;19995;-74
2021/03/29 13:27:25;;;;;;;;;;;18.30;57.30;;;;;;5029304;28;19963;-73
2021/03/29 13:29:50;;;;;;;;;;;18.30;57.30;;;;;;5032779;28;19921;-74
2021/03/29 13:32:16;;;;;;;;;;;18.30;57.30;;;;;;5041917;28;19918;-74
2021/03/29 13:34:47;;;;;;;;;;;18.30;57.30;;;;;;5061858;28;19922;-74
2021/03/29 13:37:12;;;;;;;;;;;18.30;57.20;;;;;;5029768;28;20279;-74
2021/03/29 13:39:38;;;;;;;;;;;18.30;57.20;;;;;;5031796;28;19920;-74
2021/03/29 13:42:04;;;;;;;;;;;18.30;57.20;;;;;;5032678;28;20391;-75
2021/03/29 13:44:30;;;;;;;;;;;18.30;57.20;;;;;;5022230;28;19913;-74
2021/03/29 13:46:55;;;;;;;;;;;18.40;57.20;;;;;;5015439;28;19984;-74
2021/03/29 13:49:22;;;;;;;;;;;18.40;57.20;;;;;;5029671;28;20314;-75
2021/03/29 13:51:51;;;;;;;;;;;18.40;57.20;;;;;;5031119;28;19936;-77
2021/03/29 13:54:17;;;;;;;;;;;18.30;57.20;;;;;;5026626;28;19924;-74
2021/03/29 13:56:42;;;;;;;;;;;18.30;57.20;;;;;;5027737;28;19917;-75
2021/03/29 13:59:08;;;;;;;;;;;18.30;57.20;;;;;;5036592;28;19925;-75
2021/03/29 14:01:38;;;;;;;;;;;18.40;57.20;;;;;;5035435;28;19964;-76
2021/03/29 14:04:05;;;;;;;;;;;18.40;57.20;;;;;;5028515;28;19920;-75
2021/03/29 14:06:31;;;;;;;;;;;18.30;57.10;;;;;;5033402;28;19936;-76
2021/03/29 14:09:01;;;;;;;;;;;18.40;57.10;;;;;;5024171;28;20267;-75
2021/03/29 14:11:27;;;;;;;;;;;18.40;57.10;;;;;;5034088;28;19983;-75
2021/03/29 14:13:52;;;;;;;;;;;18.40;57.10;;;;;;5034114;28;20377;-75
2021/03/29 14:16:18;;;;;;;;;;;18.40;57.10;;;;;;5029251;28;19917;-75
2021/03/29 14:18:45;;;;;;;;;;;18.40;57.10;;;;;;5018869;28;20426;-75
2021/03/29 14:21:17;;;;;;;;;;;18.40;57.10;;;;;;5025642;28;20307;-74
2021/03/29 14:23:43;;;;;;;;;;;18.40;57.10;;;;;;5034283;28;19956;-74
2021/03/29 14:26:09;;;;;;;;;;;18.40;57.10;;;;;;5025251;28;20400;-75
2021/03/29 14:28:35;;;;;;;;;;;18.40;57.10;;;;;;5032640;28;19913;-75